Time;durP1;ratioP1;P1;durP2;ratioP2;P2;SDS_P1;SDS_P2;PMS_P1;PMS_P2;Temp;Humidity;BMP_temperature;BMP_pressure;BME280_temperature;BME280_humidity;BME280_pressure;Samples;Min_cycle;Max_cycle;Signal;HPM_P1;HPM_P2
2021/12/16 00:01:47;;;;;;;4.00;2.50;;;23.60;39.40;;;;;;5025378;28;20705;-44
2021/12/16 00:09:47;;;;;;;4.88;2.70;;;23.50;39.40;;;;;;5024965;28;20104;-45
2021/12/16 00:34:00;;;;;;;6.35;2.63;;;23.50;39.40;;;;;;5022971;28;20478;-44
2021/12/16 00:36:28;;;;;;;4.85;2.72;;;23.50;39.40;;;;;;5024259;28;20036;-44
2021/12/16 00:38:54;;;;;;;4.30;2.47;;;23.50;39.40;;;;;;5024590;28;20049;-44
2021/12/16 00:41:20;;;;;;;4.50;2.80;;;23.40;39.40;;;;;;5024449;28;20078;-43
2021/12/16 00:43:53;;;;;;;4.15;2.30;;;23.40;39.30;;;;;;5024443;28;20079;-44
2021/12/16 00:46:54;;;;;;;3.78;2.15;;;23.40;39.30;;;;;;5025195;28;20056;-44
2021/12/16 00:54:45;;;;;;;5.00;2.40;;;23.40;39.30;;;;;;5024603;28;20457;-44
2021/12/16 00:57:14;;;;;;;4.00;2.42;;;23.40;39.30;;;;;;5024422;28;20021;-48
2021/12/16 00:59:44;;;;;;;4.32;2.25;;;23.40;39.30;;;;;;5023459;28;20032;-44
2021/12/16 01:07:56;;;;;;;4.22;2.40;;;23.30;39.30;;;;;;5013541;28;20033;-44
2021/12/16 01:57:01;;;;;;;4.82;3.03;;;23.20;39.40;;;;;;5008005;28;20044;-44
2021/12/16 01:59:34;;;;;;;4.82;2.75;;;23.20;39.40;;;;;;5017097;28;20028;-44
2021/12/16 02:02:12;;;;;;;3.50;2.40;;;23.20;39.40;;;;;;5027629;28;20038;-44
2021/12/16 02:04:54;;;;;;;3.45;2.42;;;23.10;39.30;;;;;;5027081;28;20037;-44
2021/12/16 02:10:16;;;;;;;3.58;2.08;;;23.10;39.90;;;;;;5015395;28;20610;-44
2021/12/16 02:37:22;;;;;;;3.58;2.05;;;23.10;39.30;;;;;;5023473;28;20025;-44
2021/12/16 02:39:48;;;;;;;3.10;1.70;;;23.00;39.30;;;;;;5010670;28;20041;-44
2021/12/16 02:42:20;;;;;;;3.47;2.03;;;23.00;39.20;;;;;;5007280;28;20032;-44
2021/12/16 02:50:01;;;;;;;3.72;1.92;;;23.00;39.20;;;;;;5019279;28;20047;-44
2021/12/16 02:52:28;;;;;;;4.28;2.10;;;23.00;39.20;;;;;;5023681;28;20065;-44
2021/12/16 02:54:55;;;;;;;3.60;2.20;;;23.00;39.20;;;;;;5006872;28;20498;-44
2021/12/16 02:57:22;;;;;;;3.65;1.92;;;23.00;39.20;;;;;;5005041;28;20837;-44
2021/12/16 02:59:50;;;;;;;4.30;2.38;;;22.90;39.20;;;;;;5018649;28;20500;-46
2021/12/16 03:02:18;;;;;;;3.38;1.98;;;22.90;39.20;;;;;;5026280;28;20457;-48
2021/12/16 03:04:47;;;;;;;2.97;1.65;;;23.00;39.20;;;;;;5026870;28;20029;-46
2021/12/16 03:07:14;;;;;;;4.30;2.58;;;23.00;39.20;;;;;;5020588;28;20018;-47
2021/12/16 03:15:08;;;;;;;4.43;2.73;;;22.90;39.20;;;;;;5005968;28;20025;-49
2021/12/16 03:17:42;;;;;;;3.67;2.08;;;22.90;39.20;;;;;;5005061;28;20018;-47
2021/12/16 03:20:17;;;;;;;3.03;1.80;;;22.90;39.90;;;;;;5004767;28;20537;-46
2021/12/16 03:25:20;;;;;;;3.30;1.85;;;22.90;39.20;;;;;;5026333;28;20056;-46
2021/12/16 03:37:43;;;;;;;3.28;1.85;;;22.80;39.10;;;;;;5017684;28;20025;-47
2021/12/16 03:40:13;;;;;;;3.85;2.10;;;22.80;39.10;;;;;;5006282;28;20022;-46
2021/12/16 03:42:42;;;;;;;3.30;1.88;;;22.80;39.10;;;;;;5025282;28;20080;-46
2021/12/16 03:48:06;;;;;;;3.05;1.85;;;22.80;39.10;;;;;;5034969;28;20046;-47
2021/12/16 03:50:32;;;;;;;3.60;2.00;;;22.80;39.10;;;;;;5036266;28;20037;-47
2021/12/16 03:52:58;;;;;;;2.88;1.52;;;22.80;39.10;;;;;;5035048;28;20069;-47
2021/12/16 03:55:24;;;;;;;3.42;1.85;;;22.80;39.10;;;;;;5024010;28;20025;-46
2021/12/16 03:57:50;;;;;;;3.95;1.73;;;22.80;39.20;;;;;;5025462;28;20029;-45
2021/12/16 04:00:24;;;;;;;3.20;1.88;;;22.80;39.10;;;;;;5025447;28;20057;-46
2021/12/16 04:02:49;;;;;;;3.15;1.85;;;22.80;39.10;;;;;;5024869;28;20064;-45
2021/12/16 04:05:17;;;;;;;2.88;1.83;;;22.80;39.10;;;;;;5025255;28;20647;-45
2021/12/16 04:07:44;;;;;;;3.50;2.20;;;22.80;39.10;;;;;;5023798;28;20025;-44
2021/12/16 04:10:15;;;;;;;3.15;1.90;;;22.80;39.10;;;;;;5025748;28;20637;-46
2021/12/16 04:12:41;;;;;;;3.67;2.10;;;22.70;39.10;;;;;;5024957;28;20053;-46
2021/12/16 04:15:09;;;;;;;3.60;2.10;;;22.80;39.10;;;;;;5025291;28;20429;-46
2021/12/16 04:17:35;;;;;;;3.45;1.90;;;22.70;39.10;;;;;;5025291;28;20064;-47
2021/12/16 04:20:06;;;;;;;3.10;1.90;;;22.70;39.10;;;;;;5025380;28;20615;-46
2021/12/16 04:22:40;;;;;;;3.30;1.90;;;22.70;39.20;;;;;;5018203;28;20038;-47
2021/12/16 04:25:11;;;;;;;3.10;1.80;;;22.70;39.10;;;;;;5005516;28;20088;-45
2021/12/16 04:27:37;;;;;;;2.65;1.58;;;22.70;39.10;;;;;;5004428;28;20030;-46
2021/12/16 04:30:10;;;;;;;2.97;1.80;;;22.70;39.20;;;;;;5018943;28;20221;-47
2021/12/16 04:32:36;;;;;;;3.20;2.03;;;22.70;39.10;;;;;;5024950;28;20591;-46
2021/12/16 04:35:03;;;;;;;3.50;2.17;;;22.70;39.10;;;;;;5024678;28;20456;-46
2021/12/16 04:37:29;;;;;;;3.60;2.00;;;22.70;39.10;;;;;;5024264;28;20021;-46
2021/12/16 04:39:55;;;;;;;3.42;1.92;;;22.60;39.10;;;;;;5023840;28;20117;-47
2021/12/16 04:42:25;;;;;;;3.20;1.80;;;22.60;39.10;;;;;;5022909;28;20034;-46
2021/12/16 04:44:50;;;;;;;3.35;1.90;;;22.60;39.10;;;;;;5024304;28;20026;-47
2021/12/16 04:47:17;;;;;;;3.03;1.77;;;22.70;39.10;;;;;;5023027;28;20550;-47
2021/12/16 04:49:43;;;;;;;2.95;1.80;;;22.70;39.20;;;;;;5027406;28;20036;-47
2021/12/16 04:52:15;;;;;;;3.13;2.00;;;22.60;39.10;;;;;;5040824;28;20018;-47
2021/12/16 04:54:42;;;;;;;2.67;1.55;;;22.60;39.10;;;;;;5024670;28;20029;-47
2021/12/16 04:57:09;;;;;;;3.25;1.80;;;22.70;39.10;;;;;;5024702;28;20037;-48
2021/12/16 04:59:35;;;;;;;3.25;2.10;;;22.60;39.10;;;;;;5025138;28;20029;-46
2021/12/16 05:02:08;;;;;;;3.70;1.98;;;22.60;39.10;;;;;;5024186;28;20282;-46
2021/12/16 05:04:34;;;;;;;2.92;1.75;;;22.60;39.10;;;;;;5024610;28;20694;-47
2021/12/16 05:07:00;;;;;;;2.78;1.77;;;22.60;39.10;;;;;;5022946;28;20030;-47
2021/12/16 05:10:03;;;;;;;3.03;1.83;;;22.60;39.10;;;;;;5022623;28;20790;-48
2021/12/16 05:12:17;;;;;;;3.30;2.00;;;22.60;39.40;;;;;;5023742;28;20037;-46
2021/12/16 05:14:44;;;;;;;3.72;2.22;;;22.60;39.60;;;;;;5022507;28;20034;-47
2021/12/16 05:17:23;;;;;;;4.05;2.20;;;22.60;40.20;;;;;;5023965;28;20045;-47
2021/12/16 05:19:51;;;;;;;3.35;2.17;;;22.60;40.40;;;;;;5025934;28;20029;-46
2021/12/16 05:25:07;;;;;;;3.72;2.10;;;22.60;40.60;;;;;;5026876;28;20056;-46
2021/12/16 05:27:33;;;;;;;3.42;2.25;;;22.70;40.70;;;;;;5025969;28;20386;-46
2021/12/16 05:29:58;;;;;;;3.88;2.42;;;22.70;40.80;;;;;;5027253;28;20071;-46
2021/12/16 05:32:24;;;;;;;3.55;2.20;;;22.80;41.10;;;;;;5026797;28;20029;-46
2021/12/16 05:34:50;;;;;;;4.20;2.42;;;22.80;41.40;;;;;;5027435;28;20402;-46
2021/12/16 05:37:16;;;;;;;4.65;3.05;;;22.80;42.00;;;;;;5026820;28;20017;-48
2021/12/16 05:39:42;;;;;;;3.65;2.08;;;22.90;42.40;;;;;;5027288;28;20040;-47
2021/12/16 05:42:08;;;;;;;5.70;2.60;;;23.00;42.20;;;;;;5026690;28;20536;-46
2021/12/16 05:44:33;;;;;;;7.90;2.70;;;23.10;42.40;;;;;;5025421;28;20540;-45
2021/12/16 05:46:59;;;;;;;4.97;2.47;;;23.10;42.30;;;;;;5026338;28;20029;-48
2021/12/16 05:49:25;;;;;;;6.15;2.30;;;23.20;42.10;;;;;;5027666;28;20030;-46
2021/12/16 05:51:51;;;;;;;5.82;2.75;;;23.20;41.60;;;;;;5026087;28;20025;-46
2021/12/16 05:54:20;;;;;;;4.95;2.55;;;23.30;41.30;;;;;;5026761;28;20025;-46
2021/12/16 05:56:47;;;;;;;4.45;2.90;;;23.40;41.00;;;;;;5024609;28;20453;-48
2021/12/16 05:59:17;;;;;;;4.95;2.40;;;23.50;40.90;;;;;;5026583;28;20489;-48
2021/12/16 06:01:46;;;;;;;3.97;2.05;;;23.50;40.90;;;;;;5026145;28;20045;-48
2021/12/16 06:04:13;;;;;;;5.47;2.40;;;23.60;40.70;;;;;;5026310;28;20079;-46
2021/12/16 06:06:39;;;;;;;3.92;2.13;;;23.70;40.70;;;;;;5027359;28;20064;-47
2021/12/16 06:09:07;;;;;;;6.35;2.63;;;23.80;40.50;;;;;;5025810;28;20030;-49
2021/12/16 06:11:33;;;;;;;4.78;2.55;;;23.90;40.30;;;;;;5025716;28;20225;-47
2021/12/16 06:14:19;;;;;;;5.43;2.47;;;23.90;40.10;;;;;;5026595;28;20036;-47
2021/12/16 06:27:53;;;;;;;4.13;2.17;;;24.30;39.20;;;;;;5027041;28;20083;-48
2021/12/16 06:30:25;;;;;;;3.60;2.03;;;24.30;39.10;;;;;;5026532;28;20453;-48
2021/12/16 06:32:51;;;;;;;5.03;2.40;;;24.40;39.00;;;;;;5025383;28;20033;-48
2021/12/16 06:35:17;;;;;;;5.78;2.22;;;24.50;38.90;;;;;;5027778;28;20108;-46
2021/12/16 06:37:43;;;;;;;5.53;2.33;;;24.50;38.80;;;;;;5026524;28;20617;-48
2021/12/16 06:40:10;;;;;;;6.35;2.42;;;24.60;38.70;;;;;;5027372;28;20072;-47
2021/12/16 06:42:39;;;;;;;4.85;2.15;;;24.60;38.60;;;;;;5026499;28;20026;-48
2021/12/16 06:45:11;;;;;;;4.25;2.58;;;24.60;38.50;;;;;;5027444;28;20037;-48
2021/12/16 06:47:50;;;;;;;5.88;2.05;;;24.70;38.50;;;;;;5015305;28;20030;-47
2021/12/16 06:50:29;;;;;;;4.00;2.30;;;24.70;38.30;;;;;;5023693;28;20321;-46
2021/12/16 06:52:59;;;;;;;4.30;2.53;;;24.70;38.60;;;;;;5034417;28;20033;-46
2021/12/16 06:55:36;;;;;;;4.38;2.17;;;24.80;38.30;;;;;;5027276;28;20536;-47
2021/12/16 06:58:16;;;;;;;3.88;2.00;;;24.70;38.10;;;;;;5027002;28;20738;-46
2021/12/16 07:00:46;;;;;;;3.83;1.90;;;24.80;38.00;;;;;;5026698;28;20049;-45
2021/12/16 07:03:22;;;;;;;4.60;2.28;;;24.80;38.10;;;;;;5026916;28;20401;-45
2021/12/16 07:05:53;;;;;;;3.83;2.25;;;24.80;38.30;;;;;;5026729;28;20108;-45
2021/12/16 07:08:21;;;;;;;3.53;1.92;;;24.90;38.00;;;;;;5026042;28;20037;-45
2021/12/16 07:10:49;;;;;;;4.10;2.10;;;24.90;38.00;;;;;;5025655;28;20108;-48
2021/12/16 07:13:19;;;;;;;4.13;2.20;;;24.90;37.60;;;;;;5023825;28;20467;-46
2021/12/16 07:15:48;;;;;;;3.90;2.17;;;24.90;37.40;;;;;;5024796;28;20044;-47
2021/12/16 07:18:14;;;;;;;5.05;2.60;;;24.90;37.30;;;;;;5024229;28;20032;-46
2021/12/16 07:20:41;;;;;;;4.20;2.25;;;25.00;37.40;;;;;;5025828;28;20118;-49
2021/12/16 07:23:08;;;;;;;3.45;1.83;;;25.00;37.20;;;;;;5024785;28;20569;-47
2021/12/16 07:25:35;;;;;;;5.05;2.50;;;25.00;37.10;;;;;;5024886;28;20523;-47
2021/12/16 07:28:04;;;;;;;4.32;2.67;;;25.00;37.00;;;;;;5024920;28;20364;-47
2021/12/16 07:30:30;;;;;;;5.55;2.28;;;25.00;37.30;;;;;;5023921;28;20492;-46
2021/12/16 07:32:56;;;;;;;3.65;1.92;;;25.10;37.10;;;;;;5023975;28;20386;-48
2021/12/16 07:35:26;;;;;;;4.15;2.35;;;25.10;37.00;;;;;;5024549;28;20029;-45
2021/12/16 07:37:53;;;;;;;4.70;2.67;;;25.10;36.90;;;;;;5023370;28;20100;-46
2021/12/16 07:40:22;;;;;;;5.18;2.55;;;25.10;36.60;;;;;;5026095;28;20109;-47
2021/12/16 07:43:10;;;;;;;4.43;2.45;;;25.10;36.50;;;;;;5025285;28;20029;-48
2021/12/16 07:45:42;;;;;;;4.30;2.10;;;25.20;36.50;;;;;;5025629;28;20025;-45
2021/12/16 07:48:08;;;;;;;5.77;2.43;;;25.10;36.50;;;;;;5024882;28;20068;-46
2021/12/16 07:50:36;;;;;;;4.20;2.25;;;25.20;36.40;;;;;;5036288;28;20263;-46
2021/12/16 07:53:02;;;;;;;5.55;2.58;;;25.20;36.40;;;;;;5038075;28;20478;-48
2021/12/16 07:55:28;;;;;;;4.78;2.53;;;25.20;36.30;;;;;;5025557;28;20046;-45
2021/12/16 07:57:54;;;;;;;4.90;2.60;;;25.20;36.30;;;;;;5025650;28;20630;-46
2021/12/16 08:00:24;;;;;;;4.60;2.10;;;25.20;36.30;;;;;;5025321;28;20076;-46
2021/12/16 08:02:50;;;;;;;3.47;1.90;;;25.20;36.30;;;;;;5025447;28;20584;-46
2021/12/16 08:05:18;;;;;;;3.60;2.25;;;25.20;36.20;;;;;;5025587;28;20104;-44
2021/12/16 08:07:44;;;;;;;4.88;2.28;;;25.20;36.20;;;;;;5024259;28;20372;-46
2021/12/16 08:10:13;;;;;;;3.60;2.17;;;25.20;36.20;;;;;;5025081;28;20105;-47
2021/12/16 08:12:39;;;;;;;3.20;2.15;;;25.20;36.10;;;;;;5023248;28;20028;-46
2021/12/16 08:15:06;;;;;;;4.25;2.15;;;25.20;36.20;;;;;;5025161;28;20026;-47
2021/12/16 08:17:32;;;;;;;4.32;2.00;;;25.30;36.10;;;;;;5025277;28;20533;-46
2021/12/16 08:19:58;;;;;;;3.45;2.03;;;25.20;36.20;;;;;;5025534;28;20036;-46
2021/12/16 08:22:23;;;;;;;3.67;2.17;;;25.30;36.20;;;;;;5006681;28;20116;-47
2021/12/16 08:24:49;;;;;;;3.08;1.75;;;25.30;36.10;;;;;;5025385;28;20095;-48
2021/12/16 08:27:16;;;;;;;3.20;1.85;;;25.30;36.20;;;;;;5024529;28;20106;-47
2021/12/16 08:29:43;;;;;;;4.13;2.40;;;25.30;36.10;;;;;;5025430;28;20025;-47
2021/12/16 08:32:09;;;;;;;3.10;2.00;;;25.30;36.10;;;;;;5024431;28;20029;-45
2021/12/16 08:34:38;;;;;;;3.10;1.92;;;25.30;36.00;;;;;;5025096;28;20410;-47
2021/12/16 08:37:06;;;;;;;4.28;2.10;;;25.30;36.10;;;;;;5022989;28;20033;-48
2021/12/16 08:39:33;;;;;;;3.17;1.90;;;25.30;36.00;;;;;;5023384;28;20080;-46
2021/12/16 08:42:01;;;;;;;3.90;1.92;;;25.30;36.00;;;;;;5024837;28;20442;-48
2021/12/16 08:44:27;;;;;;;3.28;1.85;;;25.30;35.90;;;;;;5024630;28;20068;-45
2021/12/16 08:46:57;;;;;;;4.40;1.92;;;25.30;35.90;;;;;;5024045;28;20501;-46
2021/12/16 08:49:23;;;;;;;3.60;2.15;;;25.30;35.90;;;;;;5024886;28;20022;-50
2021/12/16 08:51:51;;;;;;;3.10;1.70;;;25.30;35.90;;;;;;5044640;28;20035;-45
2021/12/16 08:54:19;;;;;;;3.38;1.85;;;25.30;35.90;;;;;;5027554;28;20091;-46
2021/12/16 08:56:46;;;;;;;3.05;1.45;;;25.30;35.80;;;;;;5024799;28;20025;-47
2021/12/16 08:59:13;;;;;;;2.67;1.60;;;25.30;35.90;;;;;;5024006;28;20514;-45
2021/12/16 09:01:45;;;;;;;2.95;1.77;;;25.30;35.80;;;;;;5024302;28;20101;-47
2021/12/16 09:04:15;;;;;;;2.80;1.80;;;25.30;35.90;;;;;;5022280;28;20137;-47
2021/12/16 09:06:40;;;;;;;3.15;1.70;;;25.30;35.80;;;;;;5006985;28;20064;-47
2021/12/16 09:09:08;;;;;;;3.05;1.80;;;25.30;35.80;;;;;;5023869;28;20187;-47
2021/12/16 09:11:40;;;;;;;2.53;1.38;;;25.30;35.80;;;;;;5024190;28;20018;-46
2021/12/16 09:14:06;;;;;;;2.88;1.80;;;25.30;35.80;;;;;;5024065;28;20048;-48
2021/12/16 09:16:33;;;;;;;2.50;1.50;;;25.30;35.70;;;;;;5024484;28;20084;-46
2021/12/16 09:19:01;;;;;;;3.50;1.52;;;25.30;35.70;;;;;;5024215;28;20033;-47
2021/12/16 09:21:31;;;;;;;2.45;1.40;;;25.30;35.80;;;;;;5024068;28;20034;-46
2021/12/16 09:23:59;;;;;;;2.75;1.52;;;25.30;35.70;;;;;;5023475;28;20497;-47
2021/12/16 09:26:27;;;;;;;3.58;1.45;;;25.30;35.70;;;;;;5024781;28;20029;-46
2021/12/16 09:28:53;;;;;;;2.65;1.48;;;25.30;35.60;;;;;;5023198;28;20529;-46
2021/12/16 09:31:22;;;;;;;2.65;1.38;;;25.30;35.60;;;;;;5024143;28;20033;-46
2021/12/16 09:33:51;;;;;;;2.78;1.50;;;25.30;35.90;;;;;;5023059;28;20072;-47
2021/12/16 09:36:21;;;;;;;2.47;1.20;;;25.30;35.60;;;;;;5024428;28;20026;-47
2021/12/16 09:38:48;;;;;;;3.17;1.38;;;25.40;35.70;;;;;;5023790;28;20607;-46
2021/12/16 09:41:15;;;;;;;3.13;1.55;;;25.40;35.60;;;;;;5024224;28;20120;-46
2021/12/16 09:43:44;;;;;;;2.67;1.55;;;25.30;35.60;;;;;;5022925;28;20025;-47
2021/12/16 09:46:17;;;;;;;2.85;1.60;;;25.40;35.60;;;;;;5024252;28;20021;-47
2021/12/16 09:48:43;;;;;;;2.83;1.42;;;25.40;35.60;;;;;;5023815;28;20183;-48
2021/12/16 09:51:16;;;;;;;2.67;1.40;;;25.30;35.60;;;;;;5039615;28;20725;-47
2021/12/16 09:53:43;;;;;;;2.80;1.30;;;25.30;35.60;;;;;;5033140;28;20577;-46
2021/12/16 09:56:10;;;;;;;2.28;1.35;;;25.40;35.50;;;;;;5023056;28;20056;-46
2021/12/16 09:58:42;;;;;;;2.55;1.45;;;25.40;35.60;;;;;;5023434;28;20052;-46
2021/12/16 10:01:10;;;;;;;2.35;1.30;;;25.40;35.60;;;;;;5023818;28;20513;-47
2021/12/16 10:03:38;;;;;;;2.63;1.20;;;25.40;35.50;;;;;;5023459;28;20032;-47
2021/12/16 10:06:04;;;;;;;1.85;0.90;;;25.40;35.40;;;;;;5026512;28;20032;-46
2021/12/16 10:08:30;;;;;;;2.88;1.50;;;25.30;35.50;;;;;;5027412;28;20040;-46
2021/12/16 10:10:58;;;;;;;1.80;1.00;;;25.30;35.50;;;;;;5027232;28;20686;-46
2021/12/16 10:13:37;;;;;;;1.85;1.08;;;25.30;35.50;;;;;;5027578;28;20524;-47
2021/12/16 10:18:33;;;;;;;2.63;1.35;;;25.30;35.50;;;;;;5027645;28;20033;-46
2021/12/16 10:21:02;;;;;;;2.03;1.10;;;25.30;35.60;;;;;;5027073;28;20068;-48
2021/12/16 10:23:42;;;;;;;1.58;0.82;;;25.30;35.60;;;;;;5026801;28;20116;-47
2021/12/16 10:26:17;;;;;;;1.95;1.00;;;25.30;35.60;;;;;;5027333;28;20021;-47
2021/12/16 10:28:45;;;;;;;2.20;1.05;;;25.30;35.60;;;;;;5026906;28;20083;-46
2021/12/16 10:31:13;;;;;;;1.77;1.02;;;25.30;35.50;;;;;;5027290;28;20026;-45
2021/12/16 10:33:44;;;;;;;1.75;1.00;;;25.30;35.60;;;;;;5026678;28;20241;-46
2021/12/16 10:36:27;;;;;;;2.58;1.13;;;25.30;35.50;;;;;;5025552;28;20064;-46
2021/12/16 10:38:59;;;;;;;1.65;0.93;;;25.30;35.60;;;;;;5027249;28;20061;-46
2021/12/16 10:41:33;;;;;;;1.33;0.73;;;25.30;35.50;;;;;;5027146;28;20033;-47
2021/12/16 10:44:19;;;;;;;2.15;0.95;;;25.30;35.60;;;;;;5026418;28;20555;-47
2021/12/16 10:47:03;;;;;;;1.95;0.90;;;25.30;35.70;;;;;;5025988;28;20500;-48
2021/12/16 10:49:39;;;;;;;1.67;0.82;;;25.30;35.70;;;;;;5027082;28;20147;-46
2021/12/16 10:52:09;;;;;;;1.73;0.95;;;25.20;35.60;;;;;;5046381;28;20029;-47
2021/12/16 10:54:41;;;;;;;1.55;0.80;;;25.20;35.50;;;;;;5029813;28;20037;-46
2021/12/16 10:57:11;;;;;;;1.80;0.90;;;25.20;35.60;;;;;;5025897;28;20065;-47
2021/12/16 10:59:47;;;;;;;1.67;0.80;;;25.30;35.60;;;;;;5026479;28;20083;-46
2021/12/16 11:02:21;;;;;;;1.58;0.80;;;25.30;35.50;;;;;;5026596;28;20095;-46
2021/12/16 11:05:04;;;;;;;1.98;0.98;;;25.30;35.60;;;;;;5026301;28;20044;-47
2021/12/16 11:07:37;;;;;;;1.25;0.65;;;25.20;35.60;;;;;;5026704;28;20026;-47
2021/12/16 11:10:13;;;;;;;1.23;0.70;;;25.30;35.60;;;;;;5026583;28;20037;-47
2021/12/16 11:12:54;;;;;;;2.05;1.10;;;25.30;35.50;;;;;;5026497;28;20393;-46
2021/12/16 11:15:31;;;;;;;2.00;0.88;;;25.30;35.60;;;;;;5026459;28;20080;-46
2021/12/16 11:18:14;;;;;;;1.20;0.70;;;25.30;35.60;;;;;;5025712;28;20056;-48
2021/12/16 11:20:44;;;;;;;1.63;0.88;;;25.30;35.70;;;;;;5026624;28;20579;-46
2021/12/16 11:23:37;;;;;;;1.70;0.90;;;25.20;35.60;;;;;;5021902;28;20029;-46
2021/12/16 11:26:28;;;;;;;1.73;0.73;;;25.30;36.20;;;;;;5006747;28;20050;-46
2021/12/16 11:28:55;;;;;;;1.63;0.75;;;25.30;35.70;;;;;;5013216;28;20065;-47
2021/12/16 11:31:31;;;;;;;1.90;0.77;;;25.30;35.50;;;;;;5025812;28;20017;-47
2021/12/16 11:34:08;;;;;;;1.35;0.70;;;25.30;35.60;;;;;;5025992;28;20037;-47
2021/12/16 11:36:45;;;;;;;1.58;0.80;;;25.30;35.70;;;;;;5026025;28;20021;-46
2021/12/16 11:39:29;;;;;;;2.22;0.93;;;25.30;35.50;;;;;;5026048;28;20025;-46
2021/12/16 11:42:01;;;;;;;2.25;0.90;;;25.30;35.60;;;;;;5026132;28;20488;-47
2021/12/16 11:44:37;;;;;;;1.30;0.60;;;25.30;35.60;;;;;;5024558;28;20150;-46
2021/12/16 11:47:20;;;;;;;1.95;0.90;;;25.30;35.60;;;;;;5040865;28;20057;-48
2021/12/16 11:50:03;;;;;;;1.25;0.80;;;25.30;35.60;;;;;;5030112;28;20496;-48
2021/12/16 11:52:32;;;;;;;1.35;0.50;;;25.30;35.60;;;;;;5043760;28;20660;-46
2021/12/16 11:55:13;;;;;;;1.98;0.82;;;25.30;35.60;;;;;;5026623;28;20037;-47
2021/12/16 11:57:43;;;;;;;1.50;0.70;;;25.30;35.70;;;;;;5025946;28;20131;-46
2021/12/16 12:00:14;;;;;;;1.83;0.80;;;25.30;35.60;;;;;;5025349;28;20033;-45
2021/12/16 12:02:52;;;;;;;1.15;0.60;;;25.30;35.60;;;;;;5025409;28;20025;-46
2021/12/16 12:05:35;;;;;;;1.45;0.73;;;25.30;35.60;;;;;;5025672;28;20557;-45
2021/12/16 12:08:23;;;;;;;1.45;0.77;;;25.30;35.70;;;;;;5024128;28;20025;-47
2021/12/16 12:11:24;;;;;;;1.63;0.70;;;25.20;35.70;;;;;;5025480;28;20026;-47
2021/12/16 12:13:56;;;;;;;1.55;0.70;;;25.20;35.80;;;;;;5024535;28;20045;-46
2021/12/16 12:16:33;;;;;;;1.23;0.60;;;25.20;35.70;;;;;;5025456;28;20033;-45
2021/12/16 12:19:08;;;;;;;1.80;0.80;;;25.20;35.70;;;;;;5024632;28;20264;-46
2021/12/16 12:22:00;;;;;;;1.98;0.90;;;25.20;35.70;;;;;;5025418;28;20071;-46
2021/12/16 12:24:32;;;;;;;1.52;0.73;;;25.20;35.70;;;;;;5006022;28;20588;-46
2021/12/16 12:27:09;;;;;;;1.95;0.93;;;25.10;35.90;;;;;;5025225;28;20029;-46
2021/12/16 12:29:57;;;;;;;1.50;0.80;;;25.10;35.80;;;;;;5023320;28;20073;-46
2021/12/16 12:32:28;;;;;;;2.67;0.80;;;25.10;35.90;;;;;;5023168;28;20033;-47
2021/12/16 12:35:08;;;;;;;2.22;0.82;;;25.10;35.80;;;;;;5025169;28;20034;-48
2021/12/16 12:37:36;;;;;;;1.60;0.80;;;25.10;35.70;;;;;;5024797;28;20100;-47
2021/12/16 12:40:14;;;;;;;1.98;0.88;;;25.10;35.70;;;;;;5006619;28;20552;-45
2021/12/16 12:42:41;;;;;;;2.03;0.88;;;25.10;35.90;;;;;;5003498;28;20036;-46
2021/12/16 12:45:10;;;;;;;1.42;0.70;;;25.10;35.80;;;;;;5005192;28;20103;-48
2021/12/16 12:47:38;;;;;;;1.23;0.75;;;25.00;35.80;;;;;;5004816;28;20391;-47
2021/12/16 12:50:18;;;;;;;1.30;0.70;;;25.00;35.80;;;;;;5016984;28;20049;-46
2021/12/16 12:52:47;;;;;;;1.58;0.75;;;25.10;35.70;;;;;;5044439;28;20032;-46
2021/12/16 12:55:31;;;;;;;1.83;0.77;;;25.00;35.80;;;;;;5005809;28;20029;-46
2021/12/16 12:58:05;;;;;;;1.55;0.82;;;25.00;35.80;;;;;;5003720;28;20022;-46
2021/12/16 13:01:03;;;;;;;1.30;0.68;;;25.00;35.80;;;;;;5022844;28;20053;-46
2021/12/16 13:03:32;;;;;;;2.67;1.13;;;25.10;35.80;;;;;;5022572;28;20127;-47
2021/12/16 13:06:07;;;;;;;1.90;0.82;;;25.10;35.80;;;;;;5024462;28;20156;-47
2021/12/16 13:08:42;;;;;;;1.42;0.70;;;25.00;35.80;;;;;;5024037;28;20030;-48
2021/12/16 13:11:12;;;;;;;1.27;0.75;;;25.00;35.80;;;;;;5024752;28;20083;-48
2021/12/16 13:14:02;;;;;;;1.27;0.65;;;25.00;35.80;;;;;;5023604;28;20033;-45
2021/12/16 13:28:27;;;;;;;1.52;0.57;;;25.10;35.90;;;;;;5024245;28;20545;-46
2021/12/16 13:31:02;;;;;;;1.25;0.80;;;25.10;35.80;;;;;;5004837;28;20026;-46
2021/12/16 13:33:44;;;;;;;1.48;0.73;;;25.10;35.80;;;;;;5004382;28;20578;-46
2021/12/16 13:36:18;;;;;;;1.85;0.90;;;25.10;35.90;;;;;;5002940;28;20029;-46
2021/12/16 13:38:47;;;;;;;1.15;0.65;;;25.10;35.80;;;;;;5004444;28;20022;-46
2021/12/16 13:41:20;;;;;;;1.77;0.88;;;25.10;35.80;;;;;;5006351;28;20056;-46
2021/12/16 13:44:06;;;;;;;1.58;0.70;;;25.10;35.80;;;;;;5008223;28;20414;-46
2021/12/16 13:47:01;;;;;;;2.08;0.77;;;25.10;35.80;;;;;;5006331;28;20036;-47
2021/12/16 14:01:31;;;;;;;2.00;0.82;;;25.10;35.90;;;;;;5007388;28;20042;-48
2021/12/16 14:06:57;;;;;;;1.52;0.88;;;25.10;35.70;;;;;;5008044;28;20065;-48
2021/12/16 14:09:31;;;;;;;2.00;0.90;;;25.10;35.80;;;;;;5007926;28;20555;-47
2021/12/16 14:14:56;;;;;;;1.48;0.70;;;25.10;35.80;;;;;;5008182;28;20026;-46
2021/12/16 14:23:38;;;;;;;1.48;0.70;;;25.10;35.60;;;;;;5009291;28;20037;-46
2021/12/16 14:42:25;;;;;;;1.52;0.73;;;25.00;35.70;;;;;;5005897;28;20043;-48
2021/12/16 14:48:23;;;;;;;2.22;1.10;;;25.00;35.70;;;;;;5006943;28;20541;-46
2021/12/16 14:50:53;;;;;;;1.30;0.77;;;25.00;35.60;;;;;;5029097;28;20034;-46
2021/12/16 14:53:27;;;;;;;1.58;0.80;;;25.10;35.80;;;;;;5043597;28;20041;-47
2021/12/16 14:56:09;;;;;;;2.00;1.00;;;25.00;35.80;;;;;;5027166;28;20104;-47
2021/12/16 14:58:38;;;;;;;1.33;0.70;;;25.00;35.70;;;;;;5026338;28;20458;-47
2021/12/16 15:01:12;;;;;;;1.70;0.90;;;25.00;35.80;;;;;;5026585;28;20041;-46
2021/12/16 15:03:41;;;;;;;1.67;0.90;;;25.10;35.70;;;;;;5026407;28;20042;-46
2021/12/16 15:06:19;;;;;;;1.90;1.15;;;25.00;35.60;;;;;;5026142;28;20631;-47
2021/12/16 15:09:03;;;;;;;2.35;1.00;;;25.00;35.70;;;;;;5027136;28;20022;-47
2021/12/16 15:11:39;;;;;;;1.85;1.10;;;25.00;35.60;;;;;;5024047;28;20467;-48
2021/12/16 15:14:21;;;;;;;1.98;1.10;;;25.00;35.50;;;;;;5023620;28;20060;-47
2021/12/16 15:40:08;;;;;;;2.15;1.13;;;25.00;35.70;;;;;;5018565;28;20448;-47
2021/12/16 15:45:23;;;;;;;1.67;0.82;;;25.00;35.70;;;;;;5025729;28;20056;-48
2021/12/16 15:47:59;;;;;;;1.60;0.75;;;25.00;35.60;;;;;;5025831;28;20061;-47
2021/12/16 15:50:32;;;;;;;1.63;1.00;;;25.00;35.60;;;;;;5033608;28;20024;-46
2021/12/16 15:52:59;;;;;;;1.95;1.02;;;25.00;35.70;;;;;;5045326;28;20021;-47
2021/12/16 15:55:40;;;;;;;2.80;1.10;;;25.00;35.60;;;;;;5027121;28;20081;-45
2021/12/16 15:58:13;;;;;;;2.03;0.95;;;25.00;35.70;;;;;;5022751;28;20657;-46
2021/12/16 16:00:42;;;;;;;1.83;1.00;;;25.00;35.60;;;;;;5024676;28;20057;-47
2021/12/16 16:03:10;;;;;;;1.58;0.90;;;25.00;35.50;;;;;;5023731;28;20218;-46
2021/12/16 16:05:41;;;;;;;1.42;0.73;;;25.00;35.60;;;;;;5024056;28;20070;-47
2021/12/16 16:08:11;;;;;;;2.33;1.30;;;25.00;35.60;;;;;;5024661;28;20036;-46
2021/12/16 16:10:39;;;;;;;2.13;1.02;;;25.00;35.50;;;;;;5023562;28;20029;-45
2021/12/16 16:13:18;;;;;;;2.72;1.15;;;25.00;35.40;;;;;;5024580;28;20546;-47
2021/12/16 16:15:46;;;;;;;2.00;0.98;;;25.00;35.50;;;;;;5023190;28;20057;-46
2021/12/16 16:18:34;;;;;;;2.45;1.20;;;25.00;35.50;;;;;;5024217;28;20229;-48
2021/12/16 16:21:19;;;;;;;2.13;1.08;;;25.00;35.40;;;;;;5024249;28;20021;-45
2021/12/16 16:23:48;;;;;;;2.40;1.10;;;25.00;35.50;;;;;;5037219;28;20040;-47
2021/12/16 16:26:15;;;;;;;2.45;1.20;;;25.00;35.40;;;;;;5023098;28;20013;-47
2021/12/16 16:28:43;;;;;;;2.22;1.17;;;25.00;35.40;;;;;;5023214;28;20030;-46
2021/12/16 16:31:12;;;;;;;2.53;1.10;;;25.00;35.40;;;;;;5024625;28;20036;-46
2021/12/16 16:33:38;;;;;;;1.90;1.00;;;25.00;35.50;;;;;;5023962;28;20029;-46
2021/12/16 16:36:11;;;;;;;1.77;0.95;;;25.00;35.40;;;;;;5024556;28;20523;-47
2021/12/16 16:38:44;;;;;;;2.17;1.08;;;25.00;35.40;;;;;;5022924;28;20040;-47
2021/12/16 16:41:14;;;;;;;1.88;1.10;;;25.00;35.50;;;;;;5020904;28;20490;-46
2021/12/16 16:43:45;;;;;;;1.95;1.00;;;25.00;35.40;;;;;;5022957;28;20030;-48
2021/12/16 16:46:25;;;;;;;1.50;0.88;;;25.00;35.40;;;;;;5024319;28;20030;-45
2021/12/16 16:51:32;;;;;;;2.25;1.15;;;25.10;35.30;;;;;;5023303;28;20029;-45
2021/12/16 16:53:58;;;;;;;2.03;1.13;;;25.00;35.40;;;;;;5019848;28;20030;-46
2021/12/16 16:56:46;;;;;;;1.77;1.00;;;25.00;35.40;;;;;;5011675;28;20037;-48
2021/12/16 16:59:24;;;;;;;2.50;1.23;;;25.00;35.30;;;;;;5025122;28;20114;-46
2021/12/16 17:01:50;;;;;;;1.67;0.95;;;25.00;35.20;;;;;;5024156;28;20116;-47
2021/12/16 17:04:16;;;;;;;1.83;0.98;;;25.10;35.60;;;;;;5024465;28;20120;-49
2021/12/16 17:06:47;;;;;;;2.33;1.00;;;25.00;35.20;;;;;;5024375;28;20433;-46
2021/12/16 17:09:13;;;;;;;2.15;1.20;;;25.00;35.20;;;;;;5016757;28;20456;-46